createdAt,value
2023-03-06T00:01:31.294Z,2.13
2023-03-06T00:03:57.748Z,2.13
2023-03-06T00:06:24.180Z,2.14
2023-03-06T00:08:50.560Z,2.11
2023-03-06T00:11:17.389Z,2.08
2023-03-06T00:13:43.897Z,2.06
2023-03-06T00:16:10.310Z,2.06
2023-03-06T00:18:36.890Z,2.03
2023-03-06T00:21:07.424Z,2.07
2023-03-06T00:23:33.874Z,2.08
2023-03-06T00:26:00.325Z,2.08
2023-03-06T00:28:27.130Z,2.14
2023-03-06T00:30:53.520Z,2.19
2023-03-06T00:33:19.965Z,2.21
2023-03-06T00:35:46.417Z,2.20
2023-03-06T00:38:14.522Z,2.23
2023-03-06T00:40:40.957Z,2.20
2023-03-06T00:43:07.385Z,2.21
2023-03-06T00:45:35.090Z,2.20
2023-03-06T00:48:01.548Z,2.21
2023-03-06T00:50:28.161Z,2.22
2023-03-06T00:52:54.556Z,2.22
2023-03-06T00:55:20.997Z,2.23
2023-03-06T00:57:48.229Z,2.21
2023-03-06T01:00:15.118Z,2.20
2023-03-06T01:02:41.784Z,2.20
2023-03-06T01:05:09.323Z,2.20
2023-03-06T01:07:37.187Z,2.20
2023-03-06T01:10:08.495Z,2.21
2023-03-06T01:12:35.113Z,2.25
2023-03-06T01:15:01.646Z,2.24
2023-03-06T01:17:28.522Z,2.24
2023-03-06T01:19:54.937Z,2.25
2023-03-06T01:22:21.400Z,2.24
2023-03-06T01:24:47.819Z,2.20
2023-03-06T01:27:14.472Z,2.28
2023-03-06T01:29:43.384Z,2.30
2023-03-06T01:32:10.044Z,2.33
2023-03-06T01:34:36.528Z,2.32
2023-03-06T01:37:03.043Z,2.29
2023-03-06T01:39:31.371Z,2.26
2023-03-06T01:41:57.851Z,2.22
2023-03-06T01:44:24.333Z,2.19
2023-03-06T01:46:50.889Z,2.17
2023-03-06T01:49:41.507Z,2.15
2023-03-06T01:52:15.494Z,2.10
2023-03-06T01:54:53.411Z,2.10
2023-03-06T01:57:28.835Z,2.11
2023-03-06T02:00:09.317Z,2.11
2023-03-06T02:02:49.817Z,2.07
2023-03-06T02:05:16.388Z,2.04
2023-03-06T02:07:44.187Z,2.05
2023-03-06T02:10:14.804Z,2.06
2023-03-06T02:12:43.672Z,2.04
2023-03-06T02:15:12.463Z,2.04
2023-03-06T02:17:39.489Z,2.03
2023-03-06T02:20:30.504Z,2.09
2023-03-06T02:23:18.111Z,2.10
2023-03-06T02:25:48.257Z,2.10
2023-03-06T02:28:18.268Z,2.10
2023-03-06T02:30:47.948Z,2.06
2023-03-06T02:33:20.138Z,2.11
2023-03-06T02:35:50.999Z,2.13
2023-03-06T02:38:21.020Z,2.10
2023-03-06T02:40:51.587Z,2.07
2023-03-06T02:43:29.037Z,2.06
2023-03-06T02:45:56.643Z,2.04
2023-03-06T02:48:23.094Z,2.03
2023-03-06T02:50:49.900Z,2.04
2023-03-06T02:53:19.774Z,2.06
2023-03-06T02:55:46.983Z,2.04
2023-03-06T02:58:16.003Z,2.03
2023-03-06T03:00:43.057Z,2.01
2023-03-06T03:03:10.118Z,1.98
2023-03-06T03:05:36.621Z,1.99
2023-03-06T03:08:13.622Z,2.00
2023-03-06T03:10:40.073Z,2.01
2023-03-06T03:13:06.760Z,2.03
2023-03-06T03:15:34.466Z,2.07
2023-03-06T03:18:00.922Z,2.11
2023-03-06T03:20:27.356Z,2.15
2023-03-06T03:22:55.566Z,2.19
2023-03-06T03:25:24.824Z,2.16
2023-03-06T03:27:54.197Z,2.15
2023-03-06T03:30:20.960Z,2.22
2023-03-06T03:32:47.768Z,2.21
2023-03-06T03:35:14.238Z,2.21
2023-03-06T03:37:41.637Z,2.19
2023-03-06T03:40:10.184Z,2.17
2023-03-06T03:42:36.880Z,2.17
2023-03-06T03:45:05.192Z,2.15
2023-03-06T03:47:31.812Z,2.19
2023-03-06T03:49:58.217Z,2.22
2023-03-06T03:52:25.094Z,2.24
2023-03-06T03:54:51.792Z,2.24
2023-03-06T03:57:18.287Z,2.26
2023-03-06T03:59:50.251Z,2.22
2023-03-06T04:02:36.613Z,2.22
2023-03-06T04:05:16.826Z,2.19
2023-03-06T04:07:43.505Z,2.18
2023-03-06T04:10:12.399Z,2.15
2023-03-06T04:12:39.675Z,2.08
2023-03-06T04:15:07.677Z,2.06
2023-03-06T04:17:35.282Z,2.01
2023-03-06T04:20:06.826Z,2.01
2023-03-06T04:22:34.104Z,2.02
2023-03-06T04:25:00.633Z,2.03
2023-03-06T04:27:27.494Z,2.03
2023-03-06T04:29:56.266Z,2.01
2023-03-06T04:32:23.797Z,2.03
2023-03-06T04:34:50.667Z,2.02
2023-03-06T04:37:20.652Z,2.03
2023-03-06T04:39:47.989Z,2.03
2023-03-06T04:42:14.751Z,2.02
2023-03-06T04:44:41.202Z,2.00
2023-03-06T04:47:07.959Z,2.01
2023-03-06T04:49:34.649Z,2.01
2023-03-06T04:52:01.077Z,2.00
2023-03-06T04:54:27.488Z,2.01
2023-03-06T04:56:53.878Z,2.01
2023-03-06T04:59:20.388Z,1.99
2023-03-06T05:01:46.926Z,2.01
2023-03-06T05:04:13.389Z,1.98
2023-03-06T05:06:39.892Z,1.98
2023-03-06T05:09:06.330Z,2.01
2023-03-06T05:11:32.716Z,1.98
2023-03-06T05:13:59.171Z,1.97
2023-03-06T05:16:25.612Z,1.98
2023-03-06T05:18:52.136Z,1.99
2023-03-06T05:21:18.617Z,2.00
2023-03-06T05:23:45.111Z,1.96
2023-03-06T05:26:14.015Z,1.93
2023-03-06T05:28:41.094Z,1.90
2023-03-06T05:31:07.873Z,1.89
2023-03-06T05:33:36.080Z,1.93
2023-03-06T05:36:03.658Z,1.92
2023-03-06T05:38:30.141Z,1.91
2023-03-06T05:40:56.537Z,1.91
2023-03-06T05:43:22.944Z,1.91
2023-03-06T05:45:50.479Z,1.94
2023-03-06T05:48:17.074Z,1.94
2023-03-06T05:50:43.522Z,1.96
2023-03-06T05:53:09.981Z,1.95
2023-03-06T05:55:36.402Z,1.96
2023-03-06T05:58:02.862Z,1.98
2023-03-06T06:00:29.330Z,1.97
2023-03-06T06:02:55.722Z,1.99
2023-03-06T06:05:22.131Z,2.01
2023-03-06T06:07:48.518Z,1.96
2023-03-06T06:10:15.232Z,1.93
2023-03-06T06:12:41.660Z,1.93
2023-03-06T06:15:08.373Z,1.91
2023-03-06T06:17:34.833Z,1.87
2023-03-06T06:20:01.353Z,1.87
2023-03-06T06:22:27.753Z,1.86
2023-03-06T06:24:54.185Z,1.87
2023-03-06T06:27:20.581Z,1.84
2023-03-06T06:29:50.430Z,1.83
2023-03-06T06:32:17.032Z,1.83
2023-03-06T06:34:43.452Z,1.84
2023-03-06T06:37:10.059Z,1.84
2023-03-06T06:39:36.650Z,1.84
2023-03-06T06:42:27.803Z,1.87
2023-03-06T06:44:50.211Z,1.90
2023-03-06T06:47:25.438Z,1.82
2023-03-06T06:49:54.086Z,1.85
2023-03-06T06:52:20.962Z,1.84
2023-03-06T06:54:47.433Z,1.85
2023-03-06T06:57:14.530Z,1.83
2023-03-06T06:59:41.156Z,1.79
2023-03-06T07:02:07.852Z,1.78
2023-03-06T07:04:34.309Z,1.83
2023-03-06T07:07:01.140Z,1.87
2023-03-06T07:09:27.747Z,1.91
2023-03-06T07:11:54.337Z,1.94
2023-03-06T07:14:20.739Z,1.95
2023-03-06T07:16:47.144Z,1.96
2023-03-06T07:19:13.584Z,1.98
2023-03-06T07:21:40.359Z,1.98
2023-03-06T07:24:06.927Z,1.99
2023-03-06T07:26:34.753Z,2.01
2023-03-06T07:29:02.056Z,1.99
2023-03-06T07:31:28.629Z,1.96
2023-03-06T07:33:55.490Z,1.93
2023-03-06T07:36:23.731Z,1.93
2023-03-06T07:38:50.345Z,1.93
2023-03-06T07:41:19.804Z,1.95
2023-03-06T07:43:48.373Z,1.92
2023-03-06T07:46:14.823Z,1.92
2023-03-06T07:48:42.641Z,1.96
2023-03-06T07:51:14.772Z,2.02
2023-03-06T07:53:41.437Z,2.03
2023-03-06T07:56:09.052Z,2.03
2023-03-06T07:58:37.716Z,2.04
2023-03-06T08:01:06.442Z,1.97
2023-03-06T08:03:33.248Z,2.01
2023-03-06T08:06:10.184Z,2.02
2023-03-06T08:08:39.440Z,2.03
2023-03-06T08:11:06.899Z,2.04
2023-03-06T08:13:34.078Z,2.03
2023-03-06T08:16:01.350Z,2.02
2023-03-06T08:18:28.202Z,2.02
2023-03-06T08:21:05.164Z,2.01
2023-03-06T08:23:32.831Z,2.02
2023-03-06T08:26:01.161Z,2.03
2023-03-06T08:28:28.566Z,1.99
2023-03-06T08:30:55.950Z,2.04
2023-03-06T08:33:22.711Z,1.90
2023-03-06T08:35:49.157Z,2.01
2023-03-06T08:38:15.666Z,2.02
2023-03-06T08:40:42.157Z,2.03
2023-03-06T08:43:11.306Z,2.10
2023-03-06T08:45:39.656Z,2.13
2023-03-06T08:48:06.163Z,2.13
2023-03-06T08:50:32.704Z,2.11
2023-03-06T08:52:59.202Z,2.12
2023-03-06T08:55:25.757Z,2.10
2023-03-06T08:57:52.127Z,2.09
2023-03-06T09:00:19.042Z,2.08
2023-03-06T09:02:45.468Z,2.03
2023-03-06T09:05:11.974Z,2.04
2023-03-06T09:07:38.409Z,1.98
2023-03-06T09:10:05.165Z,1.93
2023-03-06T09:12:40.425Z,1.93
2023-03-06T09:15:14.418Z,1.96
2023-03-06T09:17:41.032Z,1.95
2023-03-06T09:20:10.561Z,1.98
2023-03-06T09:22:37.841Z,2.04
2023-03-06T09:25:05.495Z,2.05
2023-03-06T09:27:31.928Z,2.03
2023-03-06T09:29:58.315Z,2.05
2023-03-06T09:32:24.811Z,2.05
2023-03-06T09:34:51.275Z,2.03
2023-03-06T09:37:17.996Z,2.10
2023-03-06T09:39:44.763Z,2.12
2023-03-06T09:42:18.471Z,2.19
2023-03-06T09:44:50.341Z,2.24
2023-03-06T09:47:47.388Z,2.28
2023-03-06T09:50:23.801Z,2.35
2023-03-06T09:53:15.492Z,2.43
2023-03-06T09:55:44.111Z,2.56
2023-03-06T09:58:25.627Z,2.65
2023-03-06T10:01:16.192Z,2.70
2023-03-06T10:03:54.622Z,2.71
2023-03-06T10:06:26.234Z,2.75
2023-03-06T10:09:05.497Z,2.82
2023-03-06T10:11:40.940Z,2.91
2023-03-06T10:14:32.286Z,3.02
2023-03-06T10:16:59.042Z,3.13
2023-03-06T10:19:36.530Z,3.20
2023-03-06T10:22:34.966Z,3.27
2023-03-06T10:25:15.479Z,3.37
2023-03-06T10:27:50.676Z,3.43
2023-03-06T10:30:37.957Z,3.55
2023-03-06T10:33:30.731Z,3.68
2023-03-06T10:35:58.478Z,3.81
2023-03-06T10:38:37.647Z,3.92
2023-03-06T10:41:12.767Z,3.99
2023-03-06T10:43:41.752Z,4.00
2023-03-06T10:46:11.906Z,3.95
2023-03-06T10:48:41.990Z,4.01
2023-03-06T10:51:23.994Z,4.11
2023-03-06T10:54:02.000Z,4.10
2023-03-06T10:56:39.075Z,4.07
2023-03-06T10:59:22.972Z,4.09
2023-03-06T11:01:52.051Z,4.05
2023-03-06T11:04:28.531Z,4.10
2023-03-06T11:07:18.784Z,4.15
2023-03-06T11:09:58.849Z,3.99
2023-03-06T11:12:32.657Z,4.04
2023-03-06T11:15:14.211Z,3.95
2023-03-06T11:17:59.437Z,3.85
2023-03-06T11:20:44.669Z,3.72
2023-03-06T11:23:38.614Z,3.66
2023-03-06T11:26:17.339Z,3.62
2023-03-06T11:28:48.558Z,3.57
2023-03-06T11:31:20.733Z,3.55
2023-03-06T11:34:04.242Z,3.50
2023-03-06T11:36:52.839Z,3.43
2023-03-06T11:39:34.257Z,3.38
2023-03-06T11:42:09.369Z,3.38
2023-03-06T11:45:04.108Z,3.39
2023-03-06T11:48:08.710Z,3.36
2023-03-06T11:50:39.740Z,3.28
2023-03-06T11:53:12.220Z,3.17
2023-03-06T11:56:20.199Z,3.10
2023-03-06T11:59:34.894Z,3.03
2023-03-06T12:02:11.289Z,2.92
2023-03-06T12:04:52.452Z,2.92
2023-03-06T12:07:44.993Z,2.85
2023-03-06T12:11:13.315Z,2.82
2023-03-06T12:14:01.014Z,2.79
2023-03-06T12:16:30.079Z,2.77
2023-03-06T12:19:19.434Z,2.71
2023-03-06T12:22:04.238Z,2.74
2023-03-06T12:24:33.625Z,2.74
2023-03-06T12:27:18.162Z,2.75
2023-03-06T12:29:53.717Z,2.76
2023-03-06T12:32:37.200Z,2.77
2023-03-06T12:35:27.829Z,2.82
2023-03-06T12:38:29.303Z,2.83
2023-03-06T12:41:14.295Z,2.76
2023-03-06T12:44:07.488Z,2.70
2023-03-06T12:46:39.597Z,2.73
2023-03-06T12:49:22.975Z,2.73
2023-03-06T12:51:58.322Z,2.80
2023-03-06T12:54:29.445Z,2.84
2023-03-06T12:56:57.590Z,2.88
2023-03-06T12:59:37.954Z,2.97
2023-03-06T13:02:29.857Z,3.10
2023-03-06T13:05:21.529Z,3.21
2023-03-06T13:07:48.138Z,3.38
2023-03-06T13:10:23.221Z,3.59
2023-03-06T13:13:05.071Z,3.82
2023-03-06T13:15:41.819Z,3.95
2023-03-06T13:18:34.608Z,4.06
2023-03-06T13:21:01.177Z,3.99
2023-03-06T13:23:43.175Z,3.97
2023-03-06T13:26:09.604Z,3.97
2023-03-06T13:28:47.619Z,3.99
2023-03-06T13:31:27.827Z,4.03
2023-03-06T13:34:00.749Z,4.07
2023-03-06T13:36:39.996Z,4.18
2023-03-06T13:39:10.827Z,4.26
2023-03-06T13:41:43.361Z,4.29
2023-03-06T13:44:25.075Z,4.28
2023-03-06T13:46:59.479Z,4.29
2023-03-06T13:49:27.127Z,4.27
2023-03-06T13:51:53.719Z,4.30
2023-03-06T13:54:57.158Z,4.36
2023-03-06T13:57:54.697Z,4.39
2023-03-06T14:00:55.180Z,4.40
2023-03-06T14:03:59.045Z,4.45
2023-03-06T14:07:06.997Z,4.45
2023-03-06T14:09:37.311Z,4.32
2023-03-06T14:12:16.536Z,4.27
2023-03-06T14:14:48.428Z,4.21
2023-03-06T14:17:24.058Z,4.15
2023-03-06T14:19:51.204Z,4.07
2023-03-06T14:22:24.616Z,4.05
2023-03-06T14:25:02.937Z,4.00
2023-03-06T14:27:46.893Z,3.92
2023-03-06T14:30:16.619Z,3.81
2023-03-06T14:32:43.574Z,3.77
2023-03-06T14:35:39.323Z,3.75
2023-03-06T14:38:06.550Z,3.76
2023-03-06T14:40:42.488Z,3.75
2023-03-06T14:43:21.619Z,3.74
2023-03-06T14:45:59.640Z,3.71
2023-03-06T14:48:47.708Z,3.69
2023-03-06T14:51:22.920Z,3.67
2023-03-06T14:53:50.917Z,3.67
2023-03-06T14:56:21.943Z,3.67
2023-03-06T14:58:55.437Z,3.69
2023-03-06T15:01:36.668Z,3.71
2023-03-06T15:04:15.083Z,3.71
2023-03-06T15:06:45.105Z,3.67
2023-03-06T15:09:24.188Z,3.71
2023-03-06T15:12:02.189Z,3.70
2023-03-06T15:14:31.075Z,3.67
2023-03-06T15:17:17.542Z,3.63
2023-03-06T15:19:45.948Z,3.62
2023-03-06T15:22:34.111Z,3.58
2023-03-06T15:25:16.073Z,3.54
2023-03-06T15:27:55.013Z,3.48
2023-03-06T15:30:26.171Z,3.41
2023-03-06T15:33:24.755Z,3.31
2023-03-06T15:35:56.901Z,3.22
2023-03-06T15:38:35.156Z,3.11
2023-03-06T15:41:03.391Z,3.03
2023-03-06T15:43:36.345Z,2.97
2023-03-06T15:46:05.551Z,2.94
2023-03-06T15:48:33.900Z,2.95
2023-03-06T15:51:00.450Z,2.96
2023-03-06T15:53:26.972Z,2.95
2023-03-06T15:55:53.515Z,2.95
2023-03-06T15:58:23.783Z,2.96
2023-03-06T16:00:50.940Z,2.98
2023-03-06T16:03:18.269Z,3.01
2023-03-06T16:05:44.728Z,3.03
2023-03-06T16:08:14.672Z,3.05
2023-03-06T16:10:43.946Z,3.04
2023-03-06T16:13:26.951Z,3.03
2023-03-06T16:15:54.317Z,3.02
2023-03-06T16:18:20.911Z,3.04
2023-03-06T16:20:47.373Z,3.03
2023-03-06T16:23:15.299Z,3.03
2023-03-06T16:25:44.998Z,3.01
2023-03-06T16:28:14.618Z,3.02
2023-03-06T16:30:42.926Z,3.03
2023-03-06T16:33:13.281Z,3.03
2023-03-06T16:35:41.084Z,3.03
2023-03-06T16:38:07.625Z,3.03
2023-03-06T16:40:41.431Z,3.02
2023-03-06T16:43:09.676Z,3.01
2023-03-06T16:45:38.415Z,3.01
2023-03-06T16:48:06.093Z,3.01
2023-03-06T16:50:39.934Z,3.02
2023-03-06T16:53:07.674Z,2.99
2023-03-06T16:55:34.210Z,3.01
2023-03-06T16:58:00.656Z,2.98
2023-03-06T17:00:32.949Z,2.98
2023-03-06T17:03:00.874Z,2.95
2023-03-06T17:05:28.574Z,2.98
2023-03-06T17:07:55.679Z,2.96
2023-03-06T17:10:26.153Z,2.96
2023-03-06T17:12:53.343Z,2.97
2023-03-06T17:15:20.200Z,2.64
2023-03-06T17:17:46.858Z,2.95
2023-03-06T17:20:13.595Z,2.96
2023-03-06T17:22:41.453Z,2.92
2023-03-06T17:25:09.245Z,2.93
2023-03-06T17:27:36.650Z,2.95
2023-03-06T17:30:04.541Z,2.95
2023-03-06T17:32:32.286Z,2.93
2023-03-06T17:34:58.880Z,2.93
2023-03-06T17:37:25.361Z,2.91
2023-03-06T17:39:51.856Z,2.85
2023-03-06T17:42:18.240Z,2.84
2023-03-06T17:44:44.661Z,2.88
2023-03-06T17:47:11.369Z,2.89
2023-03-06T17:49:37.817Z,2.85
2023-03-06T17:52:05.636Z,2.86
2023-03-06T17:54:33.160Z,2.82
2023-03-06T17:57:03.197Z,2.81
2023-03-06T17:59:30.664Z,2.74
2023-03-06T18:01:58.212Z,2.73
2023-03-06T18:04:25.319Z,2.74
2023-03-06T18:06:51.721Z,2.70
2023-03-06T18:09:18.300Z,2.67
2023-03-06T18:11:44.853Z,2.63
2023-03-06T18:14:11.337Z,2.66
2023-03-06T18:16:38.174Z,2.66
2023-03-06T18:19:04.669Z,2.63
2023-03-06T18:21:31.052Z,2.61
2023-03-06T18:23:58.118Z,2.57
2023-03-06T18:26:26.840Z,2.55
2023-03-06T18:28:55.867Z,2.52
2023-03-06T18:31:25.682Z,2.46
2023-03-06T18:33:54.867Z,2.49
2023-03-06T18:36:23.338Z,2.51
2023-03-06T18:38:51.614Z,2.47
2023-03-06T18:41:19.951Z,2.46
2023-03-06T18:43:51.325Z,2.46
2023-03-06T18:46:17.679Z,2.44
2023-03-06T18:48:44.094Z,2.40
2023-03-06T18:51:11.944Z,2.34
2023-03-06T18:53:39.962Z,2.42
2023-03-06T18:56:08.789Z,2.44
2023-03-06T18:58:35.586Z,2.43
2023-03-06T19:01:07.101Z,2.38
2023-03-06T19:03:34.041Z,2.40
2023-03-06T19:06:04.870Z,2.38
2023-03-06T19:08:31.420Z,2.37
2023-03-06T19:11:02.672Z,2.35
2023-03-06T19:13:29.508Z,2.38
2023-03-06T19:15:57.042Z,2.38
2023-03-06T19:18:24.841Z,2.35
2023-03-06T19:20:52.709Z,2.36
2023-03-06T19:23:21.115Z,2.36
2023-03-06T19:25:58.280Z,2.30
2023-03-06T19:28:25.201Z,2.34
2023-03-06T19:30:52.129Z,2.36
2023-03-06T19:33:19.697Z,2.35
2023-03-06T19:35:46.427Z,2.36
2023-03-06T19:38:13.657Z,2.34
2023-03-06T19:40:40.057Z,2.33
2023-03-06T19:43:06.623Z,2.32
2023-03-06T19:45:33.035Z,2.30
2023-03-06T19:48:00.865Z,2.30
2023-03-06T19:50:30.478Z,2.29
2023-03-06T19:52:57.500Z,2.27
2023-03-06T19:55:26.244Z,2.25
2023-03-06T19:57:53.128Z,2.26
2023-03-06T20:00:20.329Z,2.22
2023-03-06T20:02:46.901Z,2.21
2023-03-06T20:05:13.322Z,2.21
2023-03-06T20:07:39.707Z,2.21
2023-03-06T20:10:07.090Z,2.21
2023-03-06T20:12:33.861Z,2.21
2023-03-06T20:15:00.300Z,2.20
2023-03-06T20:17:26.697Z,2.20
2023-03-06T20:19:53.444Z,2.20
2023-03-06T20:22:19.890Z,2.18
2023-03-06T20:24:46.408Z,2.22
2023-03-06T20:27:12.979Z,2.22
2023-03-06T20:29:44.474Z,2.24
2023-03-06T20:32:12.253Z,2.21
2023-03-06T20:34:39.652Z,2.20
2023-03-06T20:37:07.422Z,2.18
2023-03-06T20:39:33.923Z,2.17
2023-03-06T20:42:00.750Z,2.11
2023-03-06T20:44:27.488Z,2.09
2023-03-06T20:46:55.112Z,2.14
2023-03-06T20:49:22.278Z,2.11
2023-03-06T20:51:49.848Z,2.13
2023-03-06T20:54:17.202Z,2.15
2023-03-06T20:56:47.938Z,2.12
2023-03-06T20:59:14.972Z,2.11
2023-03-06T21:01:44.212Z,2.12
2023-03-06T21:04:13.803Z,2.11
2023-03-06T21:06:43.929Z,2.11
2023-03-06T21:09:11.248Z,2.14
2023-03-06T21:11:37.664Z,2.12
2023-03-06T21:14:04.113Z,2.10
2023-03-06T21:16:30.813Z,2.11
2023-03-06T21:18:59.575Z,2.09
2023-03-06T21:21:29.618Z,2.09
2023-03-06T21:23:56.114Z,2.09
2023-03-06T21:26:25.305Z,2.03
2023-03-06T21:28:51.970Z,2.07
2023-03-06T21:31:20.554Z,2.08
2023-03-06T21:33:48.685Z,2.07
2023-03-06T21:36:15.773Z,2.07
2023-03-06T21:38:42.374Z,2.07
2023-03-06T21:41:12.594Z,2.06
2023-03-06T21:43:39.506Z,2.07
2023-03-06T21:46:06.590Z,2.08
2023-03-06T21:48:33.165Z,2.10
2023-03-06T21:51:13.294Z,2.08
2023-03-06T21:53:42.450Z,2.10
2023-03-06T21:56:10.537Z,2.09
2023-03-06T21:58:37.282Z,2.09
2023-03-06T22:01:09.728Z,2.11
2023-03-06T22:03:36.198Z,2.12
2023-03-06T22:06:11.120Z,2.05
2023-03-06T22:08:37.901Z,2.10
2023-03-06T22:11:14.264Z,2.09
2023-03-06T22:13:41.276Z,2.06
2023-03-06T22:16:09.033Z,2.07
2023-03-06T22:18:35.987Z,2.06
2023-03-06T22:21:10.445Z,2.06
2023-03-06T22:23:37.031Z,2.06
2023-03-06T22:26:09.428Z,2.05
2023-03-06T22:28:35.842Z,2.07
2023-03-06T22:31:06.723Z,2.08
2023-03-06T22:33:33.195Z,2.05
2023-03-06T22:36:06.180Z,2.06
2023-03-06T22:38:34.278Z,2.09
2023-03-06T22:41:00.905Z,2.11
2023-03-06T22:43:27.632Z,2.11
2023-03-06T22:45:54.096Z,2.13
2023-03-06T22:48:21.186Z,2.11
2023-03-06T22:50:47.637Z,2.10
2023-03-06T22:53:14.112Z,2.13
2023-03-06T22:55:40.504Z,2.13
2023-03-06T22:58:07.095Z,2.10
2023-03-06T23:00:33.524Z,2.15
2023-03-06T23:02:59.981Z,2.14
2023-03-06T23:05:29.161Z,2.15
2023-03-06T23:07:55.956Z,2.14
2023-03-06T23:10:22.384Z,2.15
2023-03-06T23:13:07.252Z,2.14
2023-03-06T23:15:52.073Z,2.13
2023-03-06T23:18:38.545Z,2.13
2023-03-06T23:21:23.575Z,2.09
2023-03-06T23:24:08.315Z,2.11
2023-03-06T23:26:34.966Z,2.11
2023-03-06T23:29:04.163Z,2.13
2023-03-06T23:31:31.490Z,2.14
2023-03-06T23:34:00.624Z,2.10
2023-03-06T23:36:27.822Z,2.15
2023-03-06T23:38:54.496Z,2.14
2023-03-06T23:41:22.626Z,2.14
2023-03-06T23:43:49.904Z,2.13
2023-03-06T23:46:17.166Z,2.13
2023-03-06T23:48:44.223Z,2.12
2023-03-06T23:51:28.626Z,2.11
2023-03-06T23:53:57.942Z,2.12
2023-03-06T23:56:25.882Z,2.13
2023-03-06T23:58:52.777Z,2.09
